Time;durP1;ratioP1;P1;durP2;ratioP2;P2;SDS_P1;SDS_P2;PMS_P1;PMS_P2;Temp;Humidity;BMP_temperature;BMP_pressure;BME280_temperature;BME280_humidity;BME280_pressure;Samples;Min_cycle;Max_cycle;Signal;HPM_P1;HPM_P2
2023/06/15 00:01:32;;;;;;;6.50;3.47;;;16.40;99.90;;;;;;5024019;28;20041;-79
2023/06/15 00:04:00;;;;;;;5.68;3.28;;;16.30;99.90;;;;;;5022565;28;20175;-80
2023/06/15 00:06:27;;;;;;;4.55;3.45;;;16.30;99.90;;;;;;5038886;28;20048;-79
2023/06/15 00:08:54;;;;;;;6.95;3.28;;;16.30;99.90;;;;;;5041676;28;20477;-80
2023/06/15 00:11:19;;;;;;;5.95;3.50;;;16.20;99.90;;;;;;5037523;28;20053;-81
2023/06/15 00:13:45;;;;;;;5.53;3.42;;;16.20;99.90;;;;;;5059432;28;20123;-80
2023/06/15 00:16:12;;;;;;;6.25;3.90;;;16.10;99.90;;;;;;5041062;28;20037;-80
2023/06/15 00:18:38;;;;;;;5.82;3.58;;;16.10;99.90;;;;;;5044537;28;20051;-80
2023/06/15 00:21:04;;;;;;;6.32;3.58;;;16.00;99.90;;;;;;5039551;28;20049;-80
2023/06/15 00:23:32;;;;;;;5.53;3.67;;;16.00;99.90;;;;;;5035821;28;20046;-80
2023/06/15 00:25:58;;;;;;;6.00;3.63;;;16.00;99.90;;;;;;5038280;28;20108;-80
2023/06/15 00:28:23;;;;;;;6.50;3.97;;;16.00;99.90;;;;;;5039334;28;20076;-80
2023/06/15 00:30:50;;;;;;;6.97;3.85;;;15.90;99.90;;;;;;5024327;28;20041;-80
2023/06/15 00:33:15;;;;;;;6.65;3.95;;;15.90;99.90;;;;;;5039667;28;20053;-78
2023/06/15 00:35:41;;;;;;;7.70;3.80;;;15.90;99.90;;;;;;5027010;28;20077;-80
2023/06/15 00:38:07;;;;;;;5.00;3.42;;;15.90;99.90;;;;;;5042695;28;20156;-80
2023/06/15 00:40:33;;;;;;;5.63;3.97;;;15.90;99.90;;;;;;5036451;28;20041;-80
2023/06/15 00:42:59;;;;;;;6.65;3.90;;;15.90;99.90;;;;;;5026080;28;20048;-80
2023/06/15 00:45:24;;;;;;;6.53;4.32;;;15.90;99.90;;;;;;5024080;28;20124;-80
2023/06/15 00:47:50;;;;;;;6.82;4.00;;;15.80;99.90;;;;;;5022901;28;20100;-80
2023/06/15 00:50:19;;;;;;;8.48;4.30;;;15.80;99.90;;;;;;5007132;28;20045;-80
2023/06/15 00:52:47;;;;;;;6.93;3.78;;;15.80;99.90;;;;;;5042639;28;20399;-76
2023/06/15 00:55:14;;;;;;;7.30;4.22;;;15.70;99.90;;;;;;5043205;28;20051;-80
2023/06/15 00:57:44;;;;;;;7.60;4.38;;;15.70;99.90;;;;;;5020153;28;20044;-79
2023/06/15 01:00:16;;;;;;;6.63;4.20;;;15.60;99.90;;;;;;5043602;28;20170;-79
2023/06/15 01:02:42;;;;;;;5.82;4.00;;;15.60;99.90;;;;;;5060812;28;20061;-80
2023/06/15 01:05:12;;;;;;;8.02;3.90;;;15.50;99.90;;;;;;5060161;28;20726;-80
2023/06/15 01:07:47;;;;;;;6.18;3.92;;;15.50;99.90;;;;;;5045424;28;20100;-76
2023/06/15 01:10:16;;;;;;;7.95;4.43;;;15.50;99.90;;;;;;5041953;28;20041;-79
2023/06/15 01:12:45;;;;;;;7.13;4.10;;;15.40;99.90;;;;;;5041842;28;20045;-79
2023/06/15 01:15:12;;;;;;;8.63;4.65;;;15.40;99.90;;;;;;5021082;28;20040;-79
2023/06/15 01:17:45;;;;;;;6.93;4.28;;;15.40;99.90;;;;;;5061134;28;20048;-79
2023/06/15 01:20:26;;;;;;;6.60;4.00;;;15.40;99.90;;;;;;5021718;28;20044;-80
2023/06/15 01:23:31;;;;;;;7.80;4.53;;;15.40;99.90;;;;;;5041326;28;20049;-79
2023/06/15 01:26:06;;;;;;;9.80;4.25;;;15.30;99.90;;;;;;5059063;28;20049;-80
2023/06/15 01:28:34;;;;;;;9.80;4.85;;;15.30;99.90;;;;;;5024291;28;20049;-80
2023/06/15 01:31:01;;;;;;;8.80;5.28;;;15.30;99.90;;;;;;5061814;28;20500;-79
2023/06/15 01:33:27;;;;;;;6.57;4.30;;;15.40;99.90;;;;;;5023857;28;20516;-80
2023/06/15 01:35:53;;;;;;;6.45;4.28;;;15.30;99.90;;;;;;5037113;28;20607;-79
2023/06/15 01:38:24;;;;;;;6.53;4.65;;;15.30;99.90;;;;;;5058841;28;20036;-80
2023/06/15 01:40:52;;;;;;;5.38;4.65;;;15.30;99.90;;;;;;5041177;28;20045;-79
2023/06/15 01:43:21;;;;;;;8.20;4.60;;;15.30;99.90;;;;;;5045894;28;20052;-80
2023/06/15 01:45:49;;;;;;;5.70;4.43;;;15.30;99.90;;;;;;5040900;28;20055;-79
2023/06/15 01:48:15;;;;;;;10.32;4.50;;;15.20;99.90;;;;;;5042045;28;20041;-80
2023/06/15 01:50:41;;;;;;;7.22;4.78;;;15.20;99.90;;;;;;5024439;28;20094;-79
2023/06/15 01:53:07;;;;;;;8.63;4.65;;;15.20;99.90;;;;;;5042568;28;20041;-80
2023/06/15 01:55:33;;;;;;;6.90;4.15;;;15.20;99.90;;;;;;5029981;28;20575;-80
2023/06/15 01:57:59;;;;;;;8.93;4.75;;;15.20;99.90;;;;;;5042415;28;20175;-80
2023/06/15 02:00:26;;;;;;;6.15;4.65;;;15.10;99.90;;;;;;5039516;28;20103;-80
2023/06/15 02:02:52;;;;;;;7.18;4.85;;;15.10;99.90;;;;;;5038149;28;20052;-79
2023/06/15 02:05:18;;;;;;;8.80;4.90;;;15.10;99.90;;;;;;5026962;28;20131;-80
2023/06/15 02:07:44;;;;;;;5.85;4.07;;;15.00;99.90;;;;;;5039285;28;20052;-79
2023/06/15 02:10:10;;;;;;;6.68;4.50;;;15.00;99.90;;;;;;5059673;28;20129;-79
2023/06/15 02:12:36;;;;;;;5.80;4.68;;;15.00;99.90;;;;;;5044546;28;20040;-79
2023/06/15 02:15:02;;;;;;;5.97;4.72;;;15.00;99.90;;;;;;5024529;28;20044;-79
2023/06/15 02:17:33;;;;;;;6.10;4.60;;;15.00;99.90;;;;;;5030312;28;20071;-80
2023/06/15 02:19:59;;;;;;;5.53;4.82;;;15.00;99.90;;;;;;5059605;28;20051;-80
2023/06/15 02:22:25;;;;;;;8.07;4.32;;;14.90;99.90;;;;;;5042289;28;20037;-80
2023/06/15 02:24:51;;;;;;;6.25;4.72;;;14.90;99.90;;;;;;5041286;28;20064;-80
2023/06/15 02:27:16;;;;;;;6.10;4.75;;;14.80;99.90;;;;;;5044602;28;20071;-80
2023/06/15 02:29:42;;;;;;;9.30;4.88;;;14.80;99.90;;;;;;5026694;28;20122;-80
2023/06/15 02:32:11;;;;;;;8.18;4.57;;;14.80;99.90;;;;;;5012366;28;20121;-79
2023/06/15 02:34:36;;;;;;;10.55;5.00;;;14.80;99.90;;;;;;5042337;28;20041;-80
2023/06/15 02:37:02;;;;;;;12.20;5.32;;;14.80;99.90;;;;;;5040011;28;20087;-80
2023/06/15 02:39:29;;;;;;;8.75;5.30;;;14.70;99.90;;;;;;5040250;28;20041;-80
2023/06/15 02:41:55;;;;;;;7.65;5.43;;;14.70;99.90;;;;;;5040710;28;20048;-79
2023/06/15 02:44:21;;;;;;;6.18;4.80;;;14.70;99.90;;;;;;5027805;28;20033;-79
2023/06/15 02:46:47;;;;;;;8.00;4.97;;;14.60;99.90;;;;;;5025748;28;20052;-80
2023/06/15 02:49:12;;;;;;;8.18;5.05;;;14.60;99.90;;;;;;5055821;28;20048;-80
2023/06/15 02:51:39;;;;;;;9.40;5.57;;;14.50;99.90;;;;;;5025529;28;20459;-80
2023/06/15 02:54:08;;;;;;;8.57;5.35;;;14.50;99.90;;;;;;5005680;28;20067;-80
2023/06/15 02:56:37;;;;;;;8.45;5.22;;;14.50;99.90;;;;;;5036846;28;20106;-80
2023/06/15 02:59:03;;;;;;;8.20;4.95;;;14.50;99.90;;;;;;5035659;28;20119;-80
2023/06/15 03:01:38;;;;;;;8.35;4.97;;;14.50;99.90;;;;;;5004947;28;20042;-79
2023/06/15 03:04:09;;;;;;;9.23;5.45;;;14.50;99.90;;;;;;5037785;28;20053;-80
2023/06/15 03:06:38;;;;;;;13.68;5.45;;;14.50;99.90;;;;;;5010828;28;20049;-80
2023/06/15 03:09:06;;;;;;;7.00;5.80;;;14.50;99.90;;;;;;5009151;28;20053;-79
2023/06/15 03:11:32;;;;;;;9.40;5.72;;;14.50;99.90;;;;;;5038020;28;20649;-79
2023/06/15 03:13:58;;;;;;;6.90;5.07;;;14.50;99.90;;;;;;5044056;28;20072;-80
2023/06/15 03:16:25;;;;;;;6.75;5.28;;;14.50;99.90;;;;;;5008233;28;20060;-79
2023/06/15 03:18:52;;;;;;;9.45;5.80;;;14.50;99.90;;;;;;5041755;28;20052;-80
2023/06/15 03:21:22;;;;;;;8.48;5.90;;;14.50;99.90;;;;;;5040743;28;20053;-80
2023/06/15 03:23:49;;;;;;;12.68;6.30;;;14.50;99.90;;;;;;5021624;28;20064;-80
2023/06/15 03:26:16;;;;;;;9.80;5.75;;;14.50;99.90;;;;;;5045710;28;20404;-80
2023/06/15 03:28:43;;;;;;;8.15;6.32;;;14.50;99.90;;;;;;5023331;28;20059;-81
2023/06/15 03:31:10;;;;;;;10.75;6.50;;;14.50;99.90;;;;;;5011580;28;20088;-80
2023/06/15 03:33:36;;;;;;;9.82;6.13;;;14.50;99.90;;;;;;5037538;28;20045;-81
2023/06/15 03:36:03;;;;;;;10.25;6.57;;;14.50;99.90;;;;;;5023465;28;20046;-80
2023/06/15 03:38:28;;;;;;;9.90;5.88;;;14.60;99.90;;;;;;5010177;28;20094;-80
2023/06/15 03:40:54;;;;;;;8.73;6.55;;;14.50;99.90;;;;;;5025600;28;20049;-80
2023/06/15 03:43:20;;;;;;;10.63;6.50;;;14.60;99.90;;;;;;5023479;28;20052;-81
2023/06/15 03:45:46;;;;;;;9.10;6.43;;;14.90;99.90;;;;;;5020101;28;20045;-81
2023/06/15 03:48:11;;;;;;;10.00;6.28;;;15.10;99.90;;;;;;5025204;28;20157;-80
2023/06/15 03:50:37;;;;;;;10.07;6.13;;;15.10;99.90;;;;;;5042064;28;20047;-80
2023/06/15 03:53:03;;;;;;;8.30;6.07;;;15.10;99.90;;;;;;4978062;28;20058;-80
2023/06/15 03:55:30;;;;;;;9.68;6.25;;;15.00;99.90;;;;;;4991164;28;20413;-80
2023/06/15 03:57:55;;;;;;;9.38;6.75;;;15.00;99.90;;;;;;5005349;28;20054;-80
2023/06/15 04:00:21;;;;;;;12.65;6.07;;;15.00;99.90;;;;;;4976393;28;20042;-81
2023/06/15 04:02:47;;;;;;;8.90;6.30;;;15.00;99.90;;;;;;4994801;28;20042;-80
2023/06/15 04:05:13;;;;;;;8.70;6.38;;;15.10;99.90;;;;;;5004064;28;20034;-80
2023/06/15 04:07:39;;;;;;;8.10;5.85;;;15.00;99.90;;;;;;4990870;28;20061;-78
2023/06/15 04:10:08;;;;;;;11.50;6.78;;;15.00;99.90;;;;;;5005932;28;20046;-77
2023/06/15 04:12:33;;;;;;;10.68;6.63;;;15.00;99.90;;;;;;5007200;28;20046;-77
2023/06/15 04:14:59;;;;;;;9.75;6.85;;;15.00;99.90;;;;;;5004470;28;20056;-85
2023/06/15 04:17:25;;;;;;;9.50;6.60;;;15.00;99.90;;;;;;5004263;28;20148;-78
2023/06/15 04:19:51;;;;;;;8.57;6.22;;;15.00;99.90;;;;;;5008066;28;20549;-77
2023/06/15 04:22:16;;;;;;;9.45;6.20;;;15.00;99.90;;;;;;5009740;28;20073;-83
2023/06/15 04:24:42;;;;;;;10.82;6.40;;;15.00;99.90;;;;;;5004010;28;20057;-79
2023/06/15 04:27:12;;;;;;;7.88;6.57;;;15.10;99.90;;;;;;4990282;28;20698;-79
2023/06/15 04:29:45;;;;;;;11.27;6.10;;;15.10;99.90;;;;;;5009251;28;20075;-78
2023/06/15 04:32:14;;;;;;;8.27;5.95;;;15.20;99.90;;;;;;5006890;28;20038;-78
2023/06/15 04:34:45;;;;;;;10.23;6.22;;;15.20;99.90;;;;;;4971218;28;20041;-77
2023/06/15 04:37:14;;;;;;;10.23;6.00;;;15.30;99.90;;;;;;5005540;28;20144;-78
2023/06/15 04:39:40;;;;;;;8.40;5.82;;;15.30;99.90;;;;;;5010444;28;20285;-78
2023/06/15 04:42:09;;;;;;;7.38;6.00;;;15.30;99.90;;;;;;5008055;28;20054;-78
2023/06/15 04:44:35;;;;;;;11.43;6.47;;;15.40;99.90;;;;;;5008126;28;20049;-78
2023/06/15 04:47:03;;;;;;;11.73;6.45;;;15.50;99.90;;;;;;4984248;28;20632;-78
2023/06/15 04:49:31;;;;;;;9.82;5.97;;;15.70;99.90;;;;;;4989069;28;20042;-79
2023/06/15 04:51:57;;;;;;;8.93;5.95;;;15.90;99.90;;;;;;4987298;28;20055;-79
2023/06/15 04:54:23;;;;;;;11.05;6.00;;;15.80;99.90;;;;;;5004397;28;20105;-81
2023/06/15 04:56:49;;;;;;;8.23;5.65;;;15.80;99.90;;;;;;5039679;28;20038;-80
2023/06/15 04:59:15;;;;;;;8.80;5.50;;;15.80;99.90;;;;;;5021005;28;21466;-79
2023/06/15 05:01:40;;;;;;;7.80;5.72;;;15.80;99.90;;;;;;5041641;28;20241;-80
2023/06/15 05:04:06;;;;;;;7.05;5.35;;;15.80;99.90;;;;;;5021023;28;20065;-80
2023/06/15 05:06:32;;;;;;;9.48;6.03;;;15.90;99.90;;;;;;5037617;28;20119;-80
2023/06/15 05:08:58;;;;;;;8.40;5.18;;;15.90;99.90;;;;;;5031125;28;20050;-82
2023/06/15 05:11:24;;;;;;;7.47;4.97;;;15.90;99.90;;;;;;5035330;28;20040;-81
2023/06/15 05:13:49;;;;;;;8.27;5.38;;;16.00;99.90;;;;;;5019426;28;20045;-81
2023/06/15 05:16:15;;;;;;;9.00;4.93;;;16.00;99.90;;;;;;5038821;28;20033;-81
2023/06/15 05:18:41;;;;;;;6.53;5.03;;;16.10;99.90;;;;;;5042099;28;20068;-81
2023/06/15 05:21:07;;;;;;;5.55;4.65;;;16.10;99.90;;;;;;5036586;28;20033;-81
2023/06/15 05:23:33;;;;;;;7.45;5.03;;;16.20;99.90;;;;;;5038468;28;20049;-80
2023/06/15 05:25:59;;;;;;;7.03;4.63;;;16.30;99.90;;;;;;5034854;28;20057;-83
2023/06/15 05:28:24;;;;;;;9.20;5.28;;;16.30;99.90;;;;;;5022122;28;20670;-81
2023/06/15 05:30:50;;;;;;;8.40;4.40;;;16.40;99.90;;;;;;5039122;28;20041;-81
2023/06/15 05:33:17;;;;;;;5.75;4.75;;;16.40;99.90;;;;;;5039014;28;20047;-81
2023/06/15 05:35:43;;;;;;;8.98;4.30;;;16.50;99.90;;;;;;5018378;28;20056;-83
2023/06/15 05:38:09;;;;;;;6.90;4.70;;;16.60;99.90;;;;;;5032935;28;20097;-81
2023/06/15 05:40:35;;;;;;;6.80;4.22;;;16.60;99.90;;;;;;5036984;28;20120;-82
2023/06/15 05:43:00;;;;;;;5.65;4.55;;;16.70;99.90;;;;;;5038159;28;20029;-81
2023/06/15 05:45:26;;;;;;;7.32;4.20;;;16.80;99.90;;;;;;5021127;28;20272;-81
2023/06/15 05:47:52;;;;;;;6.70;4.22;;;16.90;99.90;;;;;;5041346;28;20126;-82
2023/06/15 05:50:18;;;;;;;8.05;4.78;;;17.10;99.90;;;;;;5035647;28;20041;-81
2023/06/15 05:52:43;;;;;;;10.48;4.95;;;17.20;99.90;;;;;;5055638;28;20053;-81
2023/06/15 05:55:09;;;;;;;9.07;4.45;;;17.30;99.90;;;;;;5059608;28;20090;-81
2023/06/15 05:57:35;;;;;;;7.45;4.75;;;17.40;99.90;;;;;;5040087;28;20044;-79
2023/06/15 06:00:03;;;;;;;6.32;4.03;;;17.60;99.90;;;;;;5040933;28;20484;-81
2023/06/15 06:02:30;;;;;;;7.55;4.05;;;17.70;99.90;;;;;;5060700;28;20053;-82
2023/06/15 06:04:55;;;;;;;7.88;4.38;;;17.80;99.90;;;;;;5041898;28;20056;-83
2023/06/15 06:07:21;;;;;;;9.32;4.70;;;17.90;99.90;;;;;;5060350;28;20045;-83
2023/06/15 06:09:47;;;;;;;4.45;3.90;;;18.10;99.90;;;;;;5057173;28;20044;-84
2023/06/15 06:12:13;;;;;;;8.57;4.10;;;18.20;99.90;;;;;;5022880;28;20140;-83
2023/06/15 06:14:39;;;;;;;7.35;4.05;;;18.30;99.90;;;;;;5045461;28;20053;-83
2023/06/15 06:17:05;;;;;;;5.13;3.80;;;18.50;99.90;;;;;;5047147;28;20051;-81
2023/06/15 06:19:31;;;;;;;5.78;3.78;;;18.60;99.90;;;;;;5043313;28;20237;-83
2023/06/15 06:21:56;;;;;;;6.00;3.80;;;18.80;99.90;;;;;;5062512;28;20116;-81
2023/06/15 06:24:22;;;;;;;8.90;4.05;;;19.00;99.90;;;;;;4993578;28;20445;-82
2023/06/15 06:26:48;;;;;;;6.78;3.67;;;19.10;99.90;;;;;;5043334;28;20041;-83
2023/06/15 06:29:13;;;;;;;6.10;3.92;;;19.30;99.90;;;;;;5015161;28;20502;-80
2023/06/15 06:31:39;;;;;;;9.10;3.63;;;19.40;99.90;;;;;;5003377;28;20049;-84
2023/06/15 06:34:05;;;;;;;7.85;4.00;;;19.50;99.90;;;;;;4983396;28;20046;-78
2023/06/15 06:36:31;;;;;;;6.03;4.00;;;19.60;99.90;;;;;;5032943;28;20037;-78
2023/06/15 06:38:57;;;;;;;6.07;3.95;;;19.80;99.90;;;;;;5029232;28;20043;-79
2023/06/15 06:41:24;;;;;;;7.50;3.85;;;19.90;99.90;;;;;;5050980;28;20049;-78
2023/06/15 06:43:50;;;;;;;6.25;3.88;;;19.90;99.90;;;;;;5047081;28;20087;-79
2023/06/15 06:46:15;;;;;;;6.35;3.83;;;20.00;99.90;;;;;;5062313;28;20053;-78
2023/06/15 06:48:41;;;;;;;5.38;3.50;;;20.10;99.90;;;;;;5039844;28;20041;-81
2023/06/15 06:51:07;;;;;;;11.35;4.20;;;20.10;99.90;;;;;;5049151;28;20587;-80
2023/06/15 06:53:32;;;;;;;7.85;4.05;;;20.20;99.90;;;;;;5007634;28;20096;-79
2023/06/15 06:55:58;;;;;;;8.35;3.80;;;20.20;99.90;;;;;;5016930;28;20060;-80
2023/06/15 06:58:24;;;;;;;7.80;3.72;;;20.30;99.90;;;;;;5021321;28;20500;-80
2023/06/15 07:00:50;;;;;;;6.13;3.67;;;20.40;99.90;;;;;;5025741;28;20044;-80
2023/06/15 07:03:16;;;;;;;5.03;3.30;;;20.60;99.90;;;;;;5044107;28;20498;-80
2023/06/15 07:05:41;;;;;;;6.15;3.28;;;20.70;99.40;;;;;;5062134;28;20065;-80
2023/06/15 07:08:07;;;;;;;8.48;3.90;;;20.90;99.30;;;;;;5023699;28;20055;-80
2023/06/15 07:10:33;;;;;;;6.32;3.58;;;21.20;99.90;;;;;;5021516;28;20416;-79
2023/06/15 07:12:59;;;;;;;6.90;3.47;;;21.30;97.80;;;;;;5024435;28;20122;-79
2023/06/15 07:15:27;;;;;;;5.20;3.67;;;21.30;95.00;;;;;;5044847;28;20133;-80
2023/06/15 07:17:53;;;;;;;5.63;3.78;;;21.30;91.60;;;;;;5047053;28;20109;-80
2023/06/15 07:20:19;;;;;;;6.28;3.25;;;21.30;94.50;;;;;;5038012;28;20049;-80
2023/06/15 07:22:45;;;;;;;4.75;3.50;;;21.50;90.90;;;;;;5056183;28;20056;-80
2023/06/15 07:25:10;;;;;;;5.53;3.38;;;21.50;86.10;;;;;;5032541;28;20045;-80
2023/06/15 07:27:36;;;;;;;5.97;3.30;;;21.60;85.40;;;;;;5055918;28;20047;-80
2023/06/15 07:30:02;;;;;;;6.68;4.28;;;21.80;89.50;;;;;;5059336;28;20041;-80
2023/06/15 07:32:28;;;;;;;16.13;4.80;;;21.90;90.00;;;;;;5035343;28;20638;-78
2023/06/15 07:34:54;;;;;;;15.50;4.03;;;21.80;81.30;;;;;;5037977;28;20087;-79
2023/06/15 07:37:19;;;;;;;6.50;3.83;;;21.70;83.00;;;;;;5004645;28;20053;-79
2023/06/15 07:39:45;;;;;;;7.00;3.38;;;21.70;82.10;;;;;;5036103;28;20099;-79
2023/06/15 07:42:10;;;;;;;10.73;4.45;;;21.80;81.90;;;;;;5061193;28;20044;-80
2023/06/15 07:44:36;;;;;;;9.25;4.28;;;22.00;79.30;;;;;;5045362;28;20052;-79
2023/06/15 07:47:02;;;;;;;7.47;3.55;;;22.00;79.80;;;;;;5053211;28;20080;-79
2023/06/15 07:49:28;;;;;;;9.43;3.72;;;22.20;79.50;;;;;;5027624;28;20109;-80
2023/06/15 07:51:54;;;;;;;5.85;3.60;;;22.30;74.90;;;;;;5034824;28;20135;-80
2023/06/15 07:54:20;;;;;;;4.40;3.60;;;22.40;73.50;;;;;;5058133;28;20028;-79
2023/06/15 07:56:46;;;;;;;5.82;3.70;;;22.50;72.90;;;;;;5021531;28;20059;-80
2023/06/15 07:59:12;;;;;;;6.28;3.83;;;22.60;70.90;;;;;;5055368;28;20069;-79
2023/06/15 08:01:38;;;;;;;9.48;4.00;;;22.70;71.10;;;;;;5036457;28;20029;-80
2023/06/15 08:04:04;;;;;;;7.45;3.15;;;22.90;70.20;;;;;;5002373;28;20057;-80
2023/06/15 08:06:30;;;;;;;3.95;3.53;;;23.10;69.10;;;;;;5031187;28;20128;-79
2023/06/15 08:08:56;;;;;;;4.00;3.50;;;23.30;68.60;;;;;;5057335;28;20604;-80
2023/06/15 08:11:22;;;;;;;4.95;3.55;;;23.40;67.40;;;;;;5054230;28;20543;-80
2023/06/15 08:13:48;;;;;;;8.02;3.63;;;23.40;65.80;;;;;;5028132;28;20577;-80
2023/06/15 08:16:13;;;;;;;5.05;3.58;;;23.40;65.50;;;;;;5027451;28;20090;-81
2023/06/15 08:18:39;;;;;;;5.35;3.40;;;23.50;64.70;;;;;;5042184;28;20311;-80
2023/06/15 08:21:05;;;;;;;7.20;3.38;;;23.40;63.70;;;;;;5030682;28;20057;-79
2023/06/15 08:23:31;;;;;;;3.38;2.97;;;23.50;64.00;;;;;;5034701;28;20285;-78
2023/06/15 08:25:56;;;;;;;7.18;3.63;;;23.50;63.70;;;;;;5002483;28;20041;-80
2023/06/15 08:28:22;;;;;;;7.57;3.47;;;23.60;63.80;;;;;;5026848;28;20037;-79
2023/06/15 08:30:48;;;;;;;6.90;3.55;;;23.50;64.70;;;;;;5023994;28;20071;-80
2023/06/15 08:33:14;;;;;;;4.68;3.78;;;23.60;63.60;;;;;;5024923;28;20052;-80
2023/06/15 08:35:40;;;;;;;5.93;3.53;;;23.70;62.80;;;;;;5036484;28;20048;-80
2023/06/15 08:38:07;;;;;;;24.15;3.85;;;23.80;62.10;;;;;;5018228;28;20115;-80
2023/06/15 08:40:32;;;;;;;4.22;3.45;;;23.60;60.80;;;;;;5035690;28;20043;-79
2023/06/15 08:42:59;;;;;;;12.40;4.15;;;23.70;61.90;;;;;;5014747;28;20116;-80
2023/06/15 08:45:41;;;;;;;19.30;4.75;;;23.80;62.40;;;;;;5030888;28;20052;-79
2023/06/15 08:48:09;;;;;;;6.15;3.45;;;23.80;62.00;;;;;;5021954;28;20037;-79
2023/06/15 08:50:37;;;;;;;5.93;3.17;;;23.90;62.90;;;;;;5019565;28;20410;-79
2023/06/15 08:53:05;;;;;;;8.13;3.45;;;24.00;62.40;;;;;;5052834;28;20138;-79
2023/06/15 08:55:32;;;;;;;19.42;4.00;;;24.30;61.80;;;;;;5044842;28;20033;-79
2023/06/15 08:57:59;;;;;;;7.18;3.55;;;24.40;61.00;;;;;;5054329;28;20071;-80
2023/06/15 09:00:25;;;;;;;13.27;4.63;;;24.40;61.20;;;;;;5021208;28;20040;-79
2023/06/15 09:02:53;;;;;;;5.60;3.30;;;24.30;61.20;;;;;;5043982;28;20045;-80
2023/06/15 09:05:19;;;;;;;17.00;4.55;;;24.30;61.20;;;;;;5055942;28;20080;-79
2023/06/15 09:07:45;;;;;;;9.38;4.22;;;24.30;60.60;;;;;;5020185;28;20558;-78
2023/06/15 09:10:19;;;;;;;11.32;3.60;;;24.20;60.60;;;;;;5038816;28;20042;-78
2023/06/15 09:12:47;;;;;;;9.90;3.35;;;24.30;59.70;;;;;;5053022;28;20053;-80
2023/06/15 09:15:33;;;;;;;11.95;3.72;;;24.40;59.00;;;;;;5038250;28;20048;-79
2023/06/15 09:18:01;;;;;;;9.38;3.05;;;24.40;57.60;;;;;;5037655;28;20052;-79
2023/06/15 09:20:31;;;;;;;10.93;4.03;;;24.40;57.70;;;;;;5019821;28;20209;-79
2023/06/15 09:23:02;;;;;;;3.92;3.03;;;24.40;56.70;;;;;;5037818;28;20106;-79
2023/06/15 09:25:31;;;;;;;18.65;4.22;;;24.40;56.60;;;;;;5041838;28;20048;-79
2023/06/15 09:27:58;;;;;;;28.70;4.97;;;24.30;56.40;;;;;;5019374;28;20072;-79
2023/06/15 09:30:35;;;;;;;5.15;3.28;;;24.20;56.10;;;;;;5035301;28;20363;-79
2023/06/15 09:33:13;;;;;;;3.95;2.95;;;24.30;56.10;;;;;;5034575;28;20104;-79
2023/06/15 09:36:00;;;;;;;4.28;3.53;;;24.50;55.60;;;;;;5036622;28;20053;-79
2023/06/15 09:38:48;;;;;;;4.75;3.25;;;24.70;56.00;;;;;;5040468;28;20123;-79
2023/06/15 09:41:14;;;;;;;6.82;3.38;;;24.90;56.60;;;;;;5055805;28;20053;-79
2023/06/15 09:43:40;;;;;;;6.22;3.20;;;25.20;56.40;;;;;;5066388;28;20044;-78
2023/06/15 09:46:14;;;;;;;6.63;3.47;;;25.30;54.30;;;;;;5055290;28;20039;-79
2023/06/15 09:48:42;;;;;;;6.30;3.38;;;25.40;54.50;;;;;;5038502;28;20093;-79
2023/06/15 09:51:08;;;;;;;7.13;3.55;;;25.50;54.00;;;;;;5029566;28;20525;-79
2023/06/15 09:53:34;;;;;;;9.45;3.97;;;25.50;53.60;;;;;;5041802;28;20140;-78
2023/06/15 09:56:01;;;;;;;5.95;3.50;;;25.60;53.60;;;;;;5034431;28;20057;-79
2023/06/15 09:58:30;;;;;;;14.23;4.50;;;25.50;53.40;;;;;;5032138;28;20113;-79
2023/06/15 10:00:58;;;;;;;10.68;3.63;;;25.50;53.30;;;;;;5009168;28;20388;-78
2023/06/15 10:03:27;;;;;;;7.10;3.70;;;25.40;52.90;;;;;;5033807;28;20210;-79
2023/06/15 10:05:55;;;;;;;31.25;5.40;;;25.40;53.20;;;;;;5039992;28;20098;-78
2023/06/15 10:08:26;;;;;;;9.25;4.32;;;25.30;52.90;;;;;;5038540;28;20045;-78
2023/06/15 10:10:56;;;;;;;4.45;3.55;;;25.20;52.70;;;;;;5039910;28;20037;-78
2023/06/15 10:13:47;;;;;;;11.20;3.95;;;25.20;53.40;;;;;;5039453;28;20048;-78
2023/06/15 10:16:15;;;;;;;5.05;3.55;;;25.10;51.90;;;;;;5035648;28;20068;-78
2023/06/15 10:18:44;;;;;;;5.18;3.70;;;25.50;53.60;;;;;;5018879;28;20046;-78
2023/06/15 10:21:15;;;;;;;5.00;3.60;;;25.80;53.40;;;;;;5033549;28;20048;-78
2023/06/15 10:23:42;;;;;;;6.03;3.53;;;26.10;52.80;;;;;;5039697;28;20060;-78
2023/06/15 10:26:09;;;;;;;5.28;3.42;;;26.30;52.10;;;;;;5032119;28;20065;-77
2023/06/15 10:28:43;;;;;;;5.60;3.33;;;26.60;52.20;;;;;;5036444;28;20307;-77
2023/06/15 10:31:39;;;;;;;4.95;3.20;;;26.80;51.80;;;;;;5012145;28;20061;-77
2023/06/15 10:34:15;;;;;;;5.60;3.15;;;27.10;51.30;;;;;;5028672;28;20081;-77
2023/06/15 10:36:47;;;;;;;29.33;5.10;;;27.20;50.50;;;;;;5036013;28;20389;-77
2023/06/15 10:39:47;;;;;;;5.70;3.28;;;27.30;50.00;;;;;;5038753;28;20045;-77
2023/06/15 10:42:14;;;;;;;6.55;3.20;;;27.30;49.20;;;;;;5023147;28;20050;-77
2023/06/15 10:44:40;;;;;;;7.55;3.10;;;27.30;50.60;;;;;;5033401;28;20045;-76
2023/06/15 10:47:11;;;;;;;6.00;3.47;;;27.30;49.60;;;;;;5039426;28;20065;-78
2023/06/15 10:49:47;;;;;;;5.70;3.25;;;27.20;49.00;;;;;;5037707;28;20128;-77
2023/06/15 10:52:13;;;;;;;4.65;3.10;;;27.00;49.60;;;;;;5019389;28;20103;-78
2023/06/15 10:54:39;;;;;;;4.68;2.95;;;27.10;49.70;;;;;;5037686;28;20551;-78
2023/06/15 10:57:07;;;;;;;7.95;3.40;;;27.30;49.80;;;;;;5038858;28;20049;-78
2023/06/15 10:59:46;;;;;;;7.88;3.53;;;27.50;48.80;;;;;;5038853;28;20053;-77
2023/06/15 11:02:33;;;;;;;7.32;3.25;;;27.60;48.50;;;;;;5039435;28;20104;-78
2023/06/15 11:05:08;;;;;;;5.35;3.40;;;27.40;47.00;;;;;;5040826;28;20263;-77
2023/06/15 11:07:35;;;;;;;7.18;3.40;;;27.20;47.80;;;;;;5039133;28;20056;-77
2023/06/15 11:10:03;;;;;;;4.57;3.20;;;27.20;48.30;;;;;;5038799;28;20054;-77
2023/06/15 11:12:33;;;;;;;4.13;2.88;;;27.30;48.30;;;;;;5027279;28;20060;-78
2023/06/15 11:15:02;;;;;;;6.70;3.25;;;27.40;48.40;;;;;;5034990;28;20128;-78
2023/06/15 11:17:28;;;;;;;5.47;3.50;;;27.30;47.50;;;;;;5039588;28;20053;-80
2023/06/15 11:19:53;;;;;;;5.18;3.40;;;27.40;48.00;;;;;;5043200;28;20080;-78
2023/06/15 11:22:28;;;;;;;4.07;3.78;;;27.50;47.10;;;;;;5041542;28;20037;-79
2023/06/15 11:24:55;;;;;;;4.05;3.30;;;27.70;47.40;;;;;;5031141;28;20053;-79
2023/06/15 11:27:22;;;;;;;6.25;3.13;;;27.80;47.90;;;;;;5034443;28;20049;-79
2023/06/15 11:29:57;;;;;;;6.70;3.25;;;28.00;47.50;;;;;;5031225;28;20096;-81
2023/06/15 11:32:26;;;;;;;4.32;3.20;;;28.00;45.00;;;;;;5020088;28;20049;-80
2023/06/15 11:35:03;;;;;;;3.85;3.33;;;27.70;45.30;;;;;;5028300;28;20037;-80
2023/06/15 11:37:29;;;;;;;14.05;3.70;;;27.50;44.60;;;;;;5025620;28;20041;-80
2023/06/15 11:39:55;;;;;;;4.13;3.30;;;27.20;44.90;;;;;;5017493;28;20043;-79
2023/06/15 11:42:22;;;;;;;5.22;3.33;;;27.20;45.80;;;;;;5036246;28;20108;-77
2023/06/15 11:44:49;;;;;;;6.32;3.42;;;27.10;45.30;;;;;;5033481;28;20728;-78
2023/06/15 11:47:16;;;;;;;4.40;3.03;;;26.90;44.80;;;;;;5035630;28;20080;-79
2023/06/15 11:49:46;;;;;;;9.50;3.33;;;27.00;46.50;;;;;;5033397;28;20037;-80
2023/06/15 11:52:12;;;;;;;4.35;3.28;;;27.20;45.90;;;;;;5023044;28;20049;-78
2023/06/15 11:54:38;;;;;;;4.95;3.28;;;27.10;44.40;;;;;;5040903;28;20578;-79
2023/06/15 11:57:04;;;;;;;6.05;3.42;;;27.20;44.20;;;;;;5035213;28;20045;-78
2023/06/15 11:59:30;;;;;;;6.35;3.20;;;27.20;44.10;;;;;;5030699;28;20049;-79
2023/06/15 12:01:59;;;;;;;5.65;2.90;;;27.30;44.10;;;;;;5038851;28;20049;-79
2023/06/15 12:04:30;;;;;;;5.60;3.10;;;27.40;44.60;;;;;;5022633;28;20073;-80
2023/06/15 12:06:56;;;;;;;;;;;27.40;44.70;;;;;;5014882;28;20045;-79
2023/06/15 12:09:22;;;;;;;4.40;3.25;;;27.40;45.00;;;;;;5037300;28;19939;-79
2023/06/15 12:11:48;;;;;;;5.82;3.40;;;27.60;44.90;;;;;;5036073;28;20041;-79
2023/06/15 12:14:20;;;;;;;8.82;3.25;;;27.90;45.60;;;;;;4997870;28;20129;-78
2023/06/15 12:16:51;;;;;;;5.10;3.00;;;28.10;45.00;;;;;;5035510;28;20046;-78
2023/06/15 12:19:18;;;;;;;5.20;2.80;;;28.10;43.80;;;;;;5020475;28;20045;-78
2023/06/15 12:21:45;;;;;;;4.65;3.10;;;28.10;44.40;;;;;;5036094;28;20037;-78
2023/06/15 12:24:17;;;;;;;6.28;3.28;;;28.30;45.00;;;;;;5016727;28;20049;-78
2023/06/15 12:26:57;;;;;;;4.93;3.28;;;28.40;44.00;;;;;;5018844;28;20053;-79
2023/06/15 12:29:24;;;;;;;12.98;3.65;;;28.50;43.70;;;;;;5033301;28;20075;-79
2023/06/15 12:31:52;;;;;;;4.05;2.90;;;28.50;44.30;;;;;;5031658;28;20045;-79
2023/06/15 12:34:26;;;;;;;3.58;2.90;;;28.40;43.30;;;;;;5034720;28;20053;-79
2023/06/15 12:36:52;;;;;;;10.38;3.35;;;28.40;43.50;;;;;;5026807;28;20060;-78
2023/06/15 12:39:18;;;;;;;5.22;2.90;;;28.50;43.40;;;;;;5035535;28;20127;-78
2023/06/15 12:41:44;;;;;;;6.18;3.00;;;28.60;43.40;;;;;;5016764;28;20122;-78
2023/06/15 12:44:11;;;;;;;7.32;3.35;;;28.70;42.50;;;;;;5033050;28;20041;-79
2023/06/15 12:46:39;;;;;;;5.18;2.63;;;28.70;42.70;;;;;;5029096;28;20512;-79
2023/06/15 12:49:09;;;;;;;5.60;3.17;;;28.90;44.00;;;;;;5035038;28;20042;-78